sensor_id;sensor_type;location;lat;lon;timestamp;pressure;altitude;pressure_sealevel;temperature;humidity
50590;BME280;36547;50.514;30.840;2024-02-15T00:00:05;100714.61;;;3.84;88.75
50590;BME280;36547;50.514;30.840;2024-02-15T00:01:14;100710.22;;;3.85;88.83
50590;BME280;36547;50.514;30.840;2024-02-15T00:02:17;100717.18;;;3.89;88.83
50590;BME280;36547;50.514;30.840;2024-02-15T00:03:25;100713.62;;;3.90;88.83
50590;BME280;36547;50.514;30.840;2024-02-15T00:04:31;100717.11;;;3.92;88.70
50590;BME280;36547;50.514;30.840;2024-02-15T00:05:35;100710.94;;;3.95;88.68
50590;BME280;36547;50.514;30.840;2024-02-15T00:06:40;100713.53;;;3.98;88.64
50590;BME280;36547;50.514;30.840;2024-02-15T00:07:46;100713.55;;;3.96;88.58
50590;BME280;36547;50.514;30.840;2024-02-15T00:08:52;100717.02;;;3.98;88.55
50590;BME280;36547;50.514;30.840;2024-02-15T00:09:59;100712.67;;;3.96;88.38
50590;BME280;36547;50.514;30.840;2024-02-15T00:11:04;100712.61;;;4.00;88.40
50590;BME280;36547;50.514;30.840;2024-02-15T00:12:10;100710.03;;;3.97;88.30
50590;BME280;36547;50.514;30.840;2024-02-15T00:13:15;100709.18;;;3.95;88.35
50590;BME280;36547;50.514;30.840;2024-02-15T00:14:21;100711.81;;;3.95;88.42
50590;BME280;36547;50.514;30.840;2024-02-15T00:15:28;100715.33;;;3.94;88.48
50590;BME280;36547;50.514;30.840;2024-02-15T00:16:34;100715.31;;;3.96;88.48
50590;BME280;36547;50.514;30.840;2024-02-15T00:17:41;100714.39;;;3.98;88.49
50590;BME280;36547;50.514;30.840;2024-02-15T00:18:47;100717.06;;;3.95;88.37
50590;BME280;36547;50.514;30.840;2024-02-15T00:19:53;100721.45;;;3.95;88.38
50590;BME280;36547;50.514;30.840;2024-02-15T00:20:57;100724.06;;;3.96;88.40
50590;BME280;36547;50.514;30.840;2024-02-15T00:22:00;100724.97;;;3.94;88.32
50590;BME280;36547;50.514;30.840;2024-02-15T00:23:11;100724.99;;;3.92;88.41
50590;BME280;36547;50.514;30.840;2024-02-15T00:24:18;100725.80;;;3.97;88.53
50590;BME280;36547;50.514;30.840;2024-02-15T00:25:26;100731.91;;;3.99;88.35
50590;BME280;36547;50.514;30.840;2024-02-15T00:26:33;100726.67;;;3.98;88.22
50590;BME280;36547;50.514;30.840;2024-02-15T00:27:37;100728.41;;;3.99;88.31
50590;BME280;36547;50.514;30.840;2024-02-15T00:28:41;100725.77;;;4.00;88.25
50590;BME280;36547;50.514;30.840;2024-02-15T00:29:49;100725.77;;;4.00;88.16
50590;BME280;36547;50.514;30.840;2024-02-15T00:30:54;100724.05;;;3.98;88.16
50590;BME280;36547;50.514;30.840;2024-02-15T00:32:00;100731.08;;;3.96;88.22
50590;BME280;36547;50.514;30.840;2024-02-15T00:33:07;100731.10;;;3.94;88.16
50590;BME280;36547;50.514;30.840;2024-02-15T00:34:13;100725.84;;;3.94;88.25
50590;BME280;36547;50.514;30.840;2024-02-15T00:35:16;100729.36;;;3.93;88.22
50590;BME280;36547;50.514;30.840;2024-02-15T00:36:20;100734.58;;;3.96;88.21
50590;BME280;36547;50.514;30.840;2024-02-15T00:37:25;100723.16;;;3.99;88.20
50590;BME280;36547;50.514;30.840;2024-02-15T00:38:38;100731.06;;;3.97;88.15
50590;BME280;36547;50.514;30.840;2024-02-15T00:39:42;100726.69;;;3.96;88.04
50590;BME280;36547;50.514;30.840;2024-02-15T00:40:44;100730.25;;;3.92;87.92
50590;BME280;36547;50.514;30.840;2024-02-15T00:41:52;100717.06;;;3.95;88.11
50590;BME280;36547;50.514;30.840;2024-02-15T00:42:59;100724.14;;;3.90;88.07
50590;BME280;36547;50.514;30.840;2024-02-15T00:44:03;100730.27;;;3.90;88.19
50590;BME280;36547;50.514;30.840;2024-02-15T00:45:10;100727.63;;;3.92;88.30
50590;BME280;36547;50.514;30.840;2024-02-15T00:46:16;100725.88;;;3.91;88.21
50590;BME280;36547;50.514;30.840;2024-02-15T00:47:21;100734.66;;;3.90;88.16
50590;BME280;36547;50.514;30.840;2024-02-15T00:48:25;100733.83;;;3.89;88.13
50590;BME280;36547;50.514;30.840;2024-02-15T00:49:29;100729.45;;;3.88;88.23
50590;BME280;36547;50.514;30.840;2024-02-15T00:50:33;100728.56;;;3.89;88.32
50590;BME280;36547;50.514;30.840;2024-02-15T00:51:40;100732.03;;;3.90;88.38
50590;BME280;36547;50.514;30.840;2024-02-15T00:52:45;100732.88;;;3.92;88.36
50590;BME280;36547;50.514;30.840;2024-02-15T00:53:52;100736.36;;;3.94;88.26
50590;BME280;36547;50.514;30.840;2024-02-15T00:54:56;100739.88;;;3.93;88.17
50590;BME280;36547;50.514;30.840;2024-02-15T00:55:58;100737.25;;;3.93;88.18
50590;BME280;36547;50.514;30.840;2024-02-15T00:57:06;100738.08;;;3.97;88.20
50590;BME280;36547;50.514;30.840;2024-02-15T00:58:09;100735.47;;;3.95;88.13
50590;BME280;36547;50.514;30.840;2024-02-15T00:59:15;100743.36;;;3.95;88.10
50590;BME280;36547;50.514;30.840;2024-02-15T01:00:21;100737.23;;;3.95;87.98
50590;BME280;36547;50.514;30.840;2024-02-15T01:01:27;100738.95;;;3.97;88.01
50590;BME280;36547;50.514;30.840;2024-02-15T01:02:31;100742.48;;;3.95;87.85
50590;BME280;36547;50.514;30.840;2024-02-15T01:03:34;100740.75;;;3.94;87.91
50590;BME280;36547;50.514;30.840;2024-02-15T01:04:39;100737.29;;;3.90;87.88
50590;BME280;36547;50.514;30.840;2024-02-15T01:05:45;100745.16;;;3.91;87.94
50590;BME280;36547;50.514;30.840;2024-02-15T01:06:51;100742.51;;;3.93;87.98
50590;BME280;36547;50.514;30.840;2024-02-15T01:07:56;100734.62;;;3.93;87.97
50590;BME280;36547;50.514;30.840;2024-02-15T01:09:16;100735.47;;;3.95;87.95
50590;BME280;36547;50.514;30.840;2024-02-15T01:10:18;100735.51;;;3.92;87.85
50590;BME280;36547;50.514;30.840;2024-02-15T01:11:25;100742.51;;;3.93;87.86
50590;BME280;36547;50.514;30.840;2024-02-15T01:12:28;100736.41;;;3.91;87.90
50590;BME280;36547;50.514;30.840;2024-02-15T01:13:36;100737.27;;;3.91;87.93
50590;BME280;36547;50.514;30.840;2024-02-15T01:14:44;100732.88;;;3.92;87.90
50590;BME280;36547;50.514;30.840;2024-02-15T01:15:48;100735.58;;;3.89;87.88
50590;BME280;36547;50.514;30.840;2024-02-15T01:16:54;100740.86;;;3.87;87.93
50590;BME280;36547;50.514;30.840;2024-02-15T01:17:59;100738.25;;;3.86;87.94
50590;BME280;36547;50.514;30.840;2024-02-15T01:19:14;100740.01;;;3.85;87.95
50590;BME280;36547;50.514;30.840;2024-02-15T01:20:18;100733.91;;;3.83;87.89
50590;BME280;36547;50.514;30.840;2024-02-15T01:21:23;100740.03;;;3.84;88.02
50590;BME280;36547;50.514;30.840;2024-02-15T01:22:27;100740.94;;;3.81;88.06
50590;BME280;36547;50.514;30.840;2024-02-15T01:23:29;100740.11;;;3.78;88.05
50590;BME280;36547;50.514;30.840;2024-02-15T01:24:36;100740.11;;;3.78;88.11
50590;BME280;36547;50.514;30.840;2024-02-15T01:25:45;100738.33;;;3.80;88.25
50590;BME280;36547;50.514;30.840;2024-02-15T01:26:49;100727.81;;;3.80;88.26
50590;BME280;36547;50.514;30.840;2024-02-15T01:27:55;100743.59;;;3.80;88.25
50590;BME280;36547;50.514;30.840;2024-02-15T01:29:04;100738.29;;;3.83;88.24
50590;BME280;36547;50.514;30.840;2024-02-15T01:30:09;100735.64;;;3.84;88.20
50590;BME280;36547;50.514;30.840;2024-02-15T01:31:15;100733.95;;;3.79;88.13
50590;BME280;36547;50.514;30.840;2024-02-15T01:32:22;100732.16;;;3.82;88.18
50590;BME280;36547;50.514;30.840;2024-02-15T01:33:32;100734.77;;;3.84;88.21
50590;BME280;36547;50.514;30.840;2024-02-15T01:34:37;100735.64;;;3.84;88.18
50590;BME280;36547;50.514;30.840;2024-02-15T01:35:41;100740.90;;;3.84;88.07
50590;BME280;36547;50.514;30.840;2024-02-15T01:36:48;100731.25;;;3.85;88.01
50590;BME280;36547;50.514;30.840;2024-02-15T01:37:57;100734.77;;;3.84;87.93
50590;BME280;36547;50.514;30.840;2024-02-15T01:39:03;100733.03;;;3.83;87.98
50590;BME280;36547;50.514;30.840;2024-02-15T01:40:11;100737.38;;;3.85;88.03
50590;BME280;36547;50.514;30.840;2024-02-15T01:41:21;100738.25;;;3.86;87.95
50590;BME280;36547;50.514;30.840;2024-02-15T01:42:27;100741.77;;;3.85;87.95
50590;BME280;36547;50.514;30.840;2024-02-15T01:43:32;100745.28;;;3.84;87.90
50590;BME280;36547;50.514;30.840;2024-02-15T01:44:36;100744.40;;;3.85;87.83
50590;BME280;36547;50.514;30.840;2024-02-15T01:45:40;100754.95;;;3.82;87.89
50590;BME280;36547;50.514;30.840;2024-02-15T01:46:47;100754.06;;;3.83;88.02
50590;BME280;36547;50.514;30.840;2024-02-15T01:47:55;100749.66;;;3.85;87.97
50590;BME280;36547;50.514;30.840;2024-02-15T01:49:01;100752.28;;;3.85;87.90
50590;BME280;36547;50.514;30.840;2024-02-15T01:50:10;100752.32;;;3.82;87.76
50590;BME280;36547;50.514;30.840;2024-02-15T01:51:18;100752.36;;;3.79;87.78
50590;BME280;36547;50.514;30.840;2024-02-15T01:52:25;100756.75;;;3.78;87.88
50590;BME280;36547;50.514;30.840;2024-02-15T01:53:31;100755.95;;;3.75;87.82
50590;BME280;36547;50.514;30.840;2024-02-15T01:54:38;100753.27;;;3.76;87.87
50590;BME280;36547;50.514;30.840;2024-02-15T01:55:47;100748.90;;;3.75;87.99
50590;BME280;36547;50.514;30.840;2024-02-15T01:56:53;100750.69;;;3.75;88.11
50590;BME280;36547;50.514;30.840;2024-02-15T01:58:01;100752.47;;;3.73;88.11
50590;BME280;36547;50.514;30.840;2024-02-15T01:59:08;100755.95;;;3.75;88.19
50590;BME280;36547;50.514;30.840;2024-02-15T02:00:19;100755.95;;;3.75;88.10
50590;BME280;36547;50.514;30.840;2024-02-15T02:01:25;100752.47;;;3.73;88.03
50590;BME280;36547;50.514;30.840;2024-02-15T02:02:30;100756.87;;;3.71;88.02
50590;BME280;36547;50.514;30.840;2024-02-15T02:03:36;100752.47;;;3.73;88.10
50590;BME280;36547;50.514;30.840;2024-02-15T02:04:40;100759.39;;;3.77;88.09
50590;BME280;36547;50.514;30.840;2024-02-15T02:05:47;100756.78;;;3.75;87.96
50590;BME280;36547;50.514;30.840;2024-02-15T02:06:53;100758.61;;;3.72;88.02
50590;BME280;36547;50.514;30.840;2024-02-15T02:07:59;100758.52;;;3.76;88.05
50590;BME280;36547;50.514;30.840;2024-02-15T02:09:03;100757.72;;;3.73;87.96
50590;BME280;36547;50.514;30.840;2024-02-15T02:10:07;100760.28;;;3.76;87.99
50590;BME280;36547;50.514;30.840;2024-02-15T02:11:18;100761.20;;;3.75;87.99
50590;BME280;36547;50.514;30.840;2024-02-15T02:12:24;100762.96;;;3.74;87.93
50590;BME280;36547;50.514;30.840;2024-02-15T02:13:27;100756.83;;;3.74;87.96
50590;BME280;36547;50.514;30.840;2024-02-15T02:14:32;100768.16;;;3.76;87.94
50590;BME280;36547;50.514;30.840;2024-02-15T02:15:39;100755.08;;;3.74;87.93
50590;BME280;36547;50.514;30.840;2024-02-15T02:16:42;100768.22;;;3.74;87.84
50590;BME280;36547;50.514;30.840;2024-02-15T02:17:55;100761.22;;;3.73;87.94
50590;BME280;36547;50.514;30.840;2024-02-15T02:18:58;100755.11;;;3.71;87.97
50590;BME280;36547;50.514;30.840;2024-02-15T02:20:06;100756.02;;;3.69;87.95
50590;BME280;36547;50.514;30.840;2024-02-15T02:21:11;100755.95;;;3.75;88.03
50590;BME280;36547;50.514;30.840;2024-02-15T02:22:14;100762.04;;;3.75;87.91
50590;BME280;36547;50.514;30.840;2024-02-15T02:23:20;100762.11;;;3.72;87.79
50590;BME280;36547;50.514;30.840;2024-02-15T02:24:29;100761.23;;;3.72;87.77
50590;BME280;36547;50.514;30.840;2024-02-15T02:25:36;100761.27;;;3.69;87.80
50590;BME280;36547;50.514;30.840;2024-02-15T02:26:42;100756.89;;;3.69;87.89
50590;BME280;36547;50.514;30.840;2024-02-15T02:27:48;100755.98;;;3.72;88.03
50590;BME280;36547;50.514;30.840;2024-02-15T02:28:54;100757.72;;;3.73;88.11
50590;BME280;36547;50.514;30.840;2024-02-15T02:30:03;100756.78;;;3.75;87.91
50590;BME280;36547;50.514;30.840;2024-02-15T02:31:09;100757.72;;;3.73;87.84
50590;BME280;36547;50.514;30.840;2024-02-15T02:32:12;100749.86;;;3.71;87.79
50590;BME280;36547;50.514;30.840;2024-02-15T02:33:20;100752.47;;;3.73;87.88
50590;BME280;36547;50.514;30.840;2024-02-15T02:34:24;100751.63;;;3.69;87.90
50590;BME280;36547;50.514;30.840;2024-02-15T02:35:27;100753.41;;;3.67;87.90
50590;BME280;36547;50.514;30.840;2024-02-15T02:36:33;100748.09;;;3.72;88.00
50590;BME280;36547;50.514;30.840;2024-02-15T02:37:36;100750.77;;;3.69;88.02
50590;BME280;36547;50.514;30.840;2024-02-15T02:38:44;100755.98;;;3.72;88.03
50590;BME280;36547;50.514;30.840;2024-02-15T02:39:47;100758.58;;;3.75;87.97
50590;BME280;36547;50.514;30.840;2024-02-15T02:40:51;100752.47;;;3.73;87.81
50590;BME280;36547;50.514;30.840;2024-02-15T02:41:54;100754.24;;;3.71;87.83
50590;BME280;36547;50.514;30.840;2024-02-15T02:43:01;100755.95;;;3.75;87.91
50590;BME280;36547;50.514;30.840;2024-02-15T02:44:08;100750.69;;;3.75;87.89
50590;BME280;36547;50.514;30.840;2024-02-15T02:45:15;100750.69;;;3.75;87.91
50590;BME280;36547;50.514;30.840;2024-02-15T02:46:18;100756.83;;;3.74;87.92
50590;BME280;36547;50.514;30.840;2024-02-15T02:47:20;100754.16;;;3.75;87.88
50590;BME280;36547;50.514;30.840;2024-02-15T02:48:23;100757.66;;;3.76;87.84
50590;BME280;36547;50.514;30.840;2024-02-15T02:49:30;100757.66;;;3.76;87.81
50590;BME280;36547;50.514;30.840;2024-02-15T02:50:33;100759.46;;;3.74;87.85
50590;BME280;36547;50.514;30.840;2024-02-15T02:51:39;100757.66;;;3.76;87.89
50590;BME280;36547;50.514;30.840;2024-02-15T02:52:47;100763.77;;;3.78;87.89
50590;BME280;36547;50.514;30.840;2024-02-15T02:53:53;100762.91;;;3.76;87.80
50590;BME280;36547;50.514;30.840;2024-02-15T02:54:59;100763.78;;;3.76;87.82
50590;BME280;36547;50.514;30.840;2024-02-15T02:56:02;100767.26;;;3.78;87.78
50590;BME280;36547;50.514;30.840;2024-02-15T02:57:09;100765.50;;;3.79;87.76
50590;BME280;36547;50.514;30.840;2024-02-15T02:58:14;100761.98;;;3.80;87.73
50590;BME280;36547;50.514;30.840;2024-02-15T02:59:16;100761.09;;;3.81;87.66
50590;BME280;36547;50.514;30.840;2024-02-15T03:00:22;100768.97;;;3.82;87.59
50590;BME280;36547;50.514;30.840;2024-02-15T03:01:27;100765.47;;;3.82;87.53
50590;BME280;36547;50.514;30.840;2024-02-15T03:02:35;100773.31;;;3.85;87.53
50590;BME280;36547;50.514;30.840;2024-02-15T03:03:54;100766.13;;;3.96;87.62
50590;BME280;36547;50.514;30.840;2024-02-15T03:04:56;100771.61;;;3.81;87.64
50590;BME280;36547;50.514;30.840;2024-02-15T03:05:59;100775.05;;;3.86;87.60
50590;BME280;36547;50.514;30.840;2024-02-15T03:07:01;100767.19;;;3.84;87.50
50590;BME280;36547;50.514;30.840;2024-02-15T03:08:04;100775.05;;;3.86;87.37
50590;BME280;36547;50.514;30.840;2024-02-15T03:09:06;100770.65;;;3.88;87.35
50590;BME280;36547;50.514;30.840;2024-02-15T03:10:09;100764.53;;;3.86;87.27
50590;BME280;36547;50.514;30.840;2024-02-15T03:11:13;100775.05;;;3.86;87.23
50590;BME280;36547;50.514;30.840;2024-02-15T03:12:16;100775.05;;;3.86;87.23
50590;BME280;36547;50.514;30.840;2024-02-15T03:13:19;100776.80;;;3.87;87.12
50590;BME280;36547;50.514;30.840;2024-02-15T03:14:21;100774.20;;;3.84;87.07
50590;BME280;36547;50.514;30.840;2024-02-15T03:15:23;100776.87;;;3.81;87.07
50590;BME280;36547;50.514;30.840;2024-02-15T03:16:25;100775.96;;;3.83;87.20
50590;BME280;36547;50.514;30.840;2024-02-15T03:17:27;100777.73;;;3.81;87.21
50590;BME280;36547;50.514;30.840;2024-02-15T03:18:30;100781.23;;;3.82;87.31
50590;BME280;36547;50.514;30.840;2024-02-15T03:19:32;100778.61;;;3.82;87.26
50590;BME280;36547;50.514;30.840;2024-02-15T03:20:38;100776.87;;;3.81;87.21
50590;BME280;36547;50.514;30.840;2024-02-15T03:21:41;100787.38;;;3.81;87.29
50590;BME280;36547;50.514;30.840;2024-02-15T03:22:43;100776.83;;;3.84;87.41
50590;BME280;36547;50.514;30.840;2024-02-15T03:23:45;100787.34;;;3.84;87.34
50590;BME280;36547;50.514;30.840;2024-02-15T03:24:47;100782.99;;;3.81;87.28
50590;BME280;36547;50.514;30.840;2024-02-15T03:25:50;100785.61;;;3.83;87.27
50590;BME280;36547;50.514;30.840;2024-02-15T03:26:52;100785.61;;;3.83;87.24
50590;BME280;36547;50.514;30.840;2024-02-15T03:27:57;100790.83;;;3.86;87.24
50590;BME280;36547;50.514;30.840;2024-02-15T03:29:00;100785.63;;;3.81;87.01
50590;BME280;36547;50.514;30.840;2024-02-15T03:30:02;100787.34;;;3.84;87.05
50590;BME280;36547;50.514;30.840;2024-02-15T03:31:05;100783.90;;;3.79;86.99
50590;BME280;36547;50.514;30.840;2024-02-15T03:32:08;100785.64;;;3.80;87.03
50590;BME280;36547;50.514;30.840;2024-02-15T03:33:10;100787.41;;;3.78;87.07
50590;BME280;36547;50.514;30.840;2024-02-15T03:34:13;100792.64;;;3.81;87.14
50590;BME280;36547;50.514;30.840;2024-02-15T03:35:16;100792.67;;;3.78;87.07
50590;BME280;36547;50.514;30.840;2024-02-15T03:36:19;100793.55;;;3.78;87.07
50590;BME280;36547;50.514;30.840;2024-02-15T03:37:21;100794.52;;;3.73;87.05
50590;BME280;36547;50.514;30.840;2024-02-15T03:38:23;100797.18;;;3.70;87.13
50590;BME280;36547;50.514;30.840;2024-02-15T03:39:26;100801.55;;;3.71;87.33
50590;BME280;36547;50.514;30.840;2024-02-15T03:40:28;100798.92;;;3.71;87.44
50590;BME280;36547;50.514;30.840;2024-02-15T03:41:30;100798.00;;;3.75;87.52
50590;BME280;36547;50.514;30.840;2024-02-15T03:42:32;100799.77;;;3.73;87.43
50590;BME280;36547;50.514;30.840;2024-02-15T03:43:34;100800.58;;;3.76;87.43
50590;BME280;36547;50.514;30.840;2024-02-15T03:44:36;100797.13;;;3.74;87.39
50590;BME280;36547;50.514;30.840;2024-02-15T03:45:39;100804.96;;;3.76;87.48
50590;BME280;36547;50.514;30.840;2024-02-15T03:46:41;100803.19;;;3.78;87.46
50590;BME280;36547;50.514;30.840;2024-02-15T03:47:45;100805.81;;;3.78;87.37
50590;BME280;36547;50.514;30.840;2024-02-15T03:48:47;100803.19;;;3.78;87.36
50590;BME280;36547;50.514;30.840;2024-02-15T03:49:50;100808.46;;;3.76;87.25
50590;BME280;36547;50.514;30.840;2024-02-15T03:50:52;100810.20;;;3.77;87.21
50590;BME280;36547;50.514;30.840;2024-02-15T03:51:55;100799.70;;;3.76;87.28
50590;BME280;36547;50.514;30.840;2024-02-15T03:52:58;100806.70;;;3.77;87.35
50590;BME280;36547;50.514;30.840;2024-02-15T03:54:00;100804.96;;;3.76;87.30
50590;BME280;36547;50.514;30.840;2024-02-15T03:55:02;100813.77;;;3.75;87.21
50590;BME280;36547;50.514;30.840;2024-02-15T03:56:05;100808.45;;;3.78;87.26
50590;BME280;36547;50.514;30.840;2024-02-15T03:57:07;100811.08;;;3.78;87.24
50590;BME280;36547;50.514;30.840;2024-02-15T03:58:10;100813.72;;;3.76;87.25
50590;BME280;36547;50.514;30.840;2024-02-15T03:59:12;100810.19;;;3.79;87.27
50590;BME280;36547;50.514;30.840;2024-02-15T04:00:15;100806.77;;;3.74;87.14
50590;BME280;36547;50.514;30.840;2024-02-15T04:01:18;100808.45;;;3.78;87.19
50590;BME280;36547;50.514;30.840;2024-02-15T04:02:20;100811.94;;;3.78;87.13
50590;BME280;36547;50.514;30.840;2024-02-15T04:03:23;100810.22;;;3.76;87.06
50590;BME280;36547;50.514;30.840;2024-02-15T04:04:26;100808.45;;;3.78;87.05
50590;BME280;36547;50.514;30.840;2024-02-15T04:05:29;100812.05;;;3.72;86.99
50590;BME280;36547;50.514;30.840;2024-02-15T04:06:32;100815.55;;;3.73;87.10
50590;BME280;36547;50.514;30.840;2024-02-15T04:07:34;100815.55;;;3.73;87.13
50590;BME280;36547;50.514;30.840;2024-02-15T04:08:36;100813.80;;;3.72;87.15
50590;BME280;36547;50.514;30.840;2024-02-15T04:09:38;100813.80;;;3.72;87.02
50590;BME280;36547;50.514;30.840;2024-02-15T04:10:40;100812.95;;;3.70;87.03
50590;BME280;36547;50.514;30.840;2024-02-15T04:11:47;100809.48;;;3.66;87.02
50590;BME280;36547;50.514;30.840;2024-02-15T04:12:50;100814.73;;;3.66;87.15
50590;BME280;36547;50.514;30.840;2024-02-15T04:13:52;100820.88;;;3.65;87.19
50590;BME280;36547;50.514;30.840;2024-02-15T04:14:55;100818.25;;;3.65;87.19
50590;BME280;36547;50.514;30.840;2024-02-15T04:15:58;100815.64;;;3.64;87.17
50590;BME280;36547;50.514;30.840;2024-02-15T04:17:00;100820.00;;;3.66;87.20
50590;BME280;36547;50.514;30.840;2024-02-15T04:18:03;100820.90;;;3.64;87.22
50590;BME280;36547;50.514;30.840;2024-02-15T04:19:06;100820.90;;;3.64;87.25
50590;BME280;36547;50.514;30.840;2024-02-15T04:20:10;100825.28;;;3.63;87.31
50590;BME280;36547;50.514;30.840;2024-02-15T04:21:12;100830.60;;;3.60;87.29
50590;BME280;36547;50.514;30.840;2024-02-15T04:22:16;100822.73;;;3.59;87.28
50590;BME280;36547;50.514;30.840;2024-02-15T04:23:18;100831.53;;;3.54;87.31
50590;BME280;36547;50.514;30.840;2024-02-15T04:24:21;100828.92;;;3.53;87.37
50590;BME280;36547;50.514;30.840;2024-02-15T04:25:25;100816.70;;;3.49;87.38
50590;BME280;36547;50.514;30.840;2024-02-15T04:26:30;100826.34;;;3.48;87.56
50590;BME280;36547;50.514;30.840;2024-02-15T04:27:33;100817.60;;;3.46;87.66
50590;BME280;36547;50.514;30.840;2024-02-15T04:28:36;100822.02;;;3.46;87.78
50590;BME280;36547;50.514;30.840;2024-02-15T04:29:38;100837.70;;;3.50;87.83
50590;BME280;36547;50.514;30.840;2024-02-15T04:30:40;100826.34;;;3.48;87.75
50590;BME280;36547;50.514;30.840;2024-02-15T04:31:43;100825.48;;;3.46;87.71
50590;BME280;36547;50.514;30.840;2024-02-15T04:32:51;100824.59;;;3.47;87.89
50590;BME280;36547;50.514;30.840;2024-02-15T04:33:56;100828.11;;;3.46;87.90
50590;BME280;36547;50.514;30.840;2024-02-15T04:35:03;100827.23;;;3.47;87.94
50590;BME280;36547;50.514;30.840;2024-02-15T04:36:07;100821.15;;;3.45;87.94
50590;BME280;36547;50.514;30.840;2024-02-15T04:37:15;100824.66;;;3.44;87.89
50590;BME280;36547;50.514;30.840;2024-02-15T04:38:21;100829.91;;;3.44;87.97
50590;BME280;36547;50.514;30.840;2024-02-15T04:39:26;100832.55;;;3.43;87.97
50590;BME280;36547;50.514;30.840;2024-02-15T04:40:35;100828.17;;;3.43;87.99
50590;BME280;36547;50.514;30.840;2024-02-15T04:41:41;100836.94;;;3.42;88.01
50590;BME280;36547;50.514;30.840;2024-02-15T04:42:46;100829.06;;;3.42;88.03
50590;BME280;36547;50.514;30.840;2024-02-15T04:43:53;100836.97;;;3.39;88.05
50590;BME280;36547;50.514;30.840;2024-02-15T04:44:59;100832.60;;;3.38;88.19
50590;BME280;36547;50.514;30.840;2024-02-15T04:46:04;100839.59;;;3.39;88.32
50590;BME280;36547;50.514;30.840;2024-02-15T04:47:09;100832.59;;;3.40;88.39
50590;BME280;36547;50.514;30.840;2024-02-15T04:48:15;100834.33;;;3.41;88.38
50590;BME280;36547;50.514;30.840;2024-02-15T04:49:22;100839.59;;;3.39;88.33
50590;BME280;36547;50.514;30.840;2024-02-15T04:50:29;100842.22;;;3.39;88.37
50590;BME280;36547;50.514;30.840;2024-02-15T04:51:52;100843.97;;;3.40;88.31
50590;BME280;36547;50.514;30.840;2024-02-15T04:52:56;100850.96;;;3.41;88.18
50590;BME280;36547;50.514;30.840;2024-02-15T04:54:05;100843.97;;;3.40;88.12
50590;BME280;36547;50.514;30.840;2024-02-15T04:55:12;100843.99;;;3.37;88.16
50590;BME280;36547;50.514;30.840;2024-02-15T04:56:18;100852.76;;;3.36;88.22
50590;BME280;36547;50.514;30.840;2024-02-15T04:57:27;100848.39;;;3.35;88.36
50590;BME280;36547;50.514;30.840;2024-02-15T04:58:32;100846.63;;;3.36;88.42
50590;BME280;36547;50.514;30.840;2024-02-15T04:59:41;100848.38;;;3.37;88.51
50590;BME280;36547;50.514;30.840;2024-02-15T05:00:44;100851.83;;;3.42;88.55
50590;BME280;36547;50.514;30.840;2024-02-15T05:01:48;100850.06;;;3.44;88.51
50590;BME280;36547;50.514;30.840;2024-02-15T05:03:11;100845.68;;;3.44;88.43
50590;BME280;36547;50.514;30.840;2024-02-15T05:04:34;100845.61;;;3.47;88.27
50590;BME280;36547;50.514;30.840;2024-02-15T05:05:39;100853.47;;;3.50;88.23
50590;BME280;36547;50.514;30.840;2024-02-15T05:06:50;100846.45;;;3.51;88.22
50590;BME280;36547;50.514;30.840;2024-02-15T05:07:59;100847.33;;;3.51;88.18
50590;BME280;36547;50.514;30.840;2024-02-15T05:09:04;100856.09;;;3.50;88.05
50590;BME280;36547;50.514;30.840;2024-02-15T05:10:11;100852.59;;;3.51;88.01
50590;BME280;36547;50.514;30.840;2024-02-15T05:11:21;100857.84;;;3.51;87.93
50590;BME280;36547;50.514;30.840;2024-02-15T05:12:24;100853.47;;;3.50;87.89
50590;BME280;36547;50.514;30.840;2024-02-15T05:13:34;100856.11;;;3.49;87.96
50590;BME280;36547;50.514;30.840;2024-02-15T05:14:37;100863.13;;;3.48;87.94
50590;BME280;36547;50.514;30.840;2024-02-15T05:15:49;100863.13;;;3.48;87.94
50590;BME280;36547;50.514;30.840;2024-02-15T05:16:54;100865.75;;;3.48;87.97
50590;BME280;36547;50.514;30.840;2024-02-15T05:17:59;100866.64;;;3.47;87.91
50590;BME280;36547;50.514;30.840;2024-02-15T05:19:03;100864.89;;;3.46;87.90
50590;BME280;36547;50.514;30.840;2024-02-15T05:20:09;100871.08;;;3.44;87.98
50590;BME280;36547;50.514;30.840;2024-02-15T05:21:17;100871.95;;;3.44;87.97
50590;BME280;36547;50.514;30.840;2024-02-15T05:22:28;100873.69;;;3.45;88.02
50590;BME280;36547;50.514;30.840;2024-02-15T05:23:31;100879.84;;;3.43;88.05
50590;BME280;36547;50.514;30.840;2024-02-15T05:24:35;100877.23;;;3.41;88.01
50590;BME280;36547;50.514;30.840;2024-02-15T05:25:43;100870.20;;;3.43;88.06
50590;BME280;36547;50.514;30.840;2024-02-15T05:26:48;100877.23;;;3.41;88.05
50590;BME280;36547;50.514;30.840;2024-02-15T05:27:54;100882.50;;;3.40;88.19
50590;BME280;36547;50.514;30.840;2024-02-15T05:29:00;100884.24;;;3.41;88.30
50590;BME280;36547;50.514;30.840;2024-02-15T05:30:25;100880.74;;;3.40;88.27
50590;BME280;36547;50.514;30.840;2024-02-15T05:31:30;100877.20;;;3.44;88.18
50590;BME280;36547;50.514;30.840;2024-02-15T05:32:37;100885.97;;;3.43;88.17
50590;BME280;36547;50.514;30.840;2024-02-15T05:33:44;100886.83;;;3.45;88.15
50590;BME280;36547;50.514;30.840;2024-02-15T05:34:52;100881.59;;;3.44;88.08
50590;BME280;36547;50.514;30.840;2024-02-15T05:36:00;100887.71;;;3.44;88.12
50590;BME280;36547;50.514;30.840;2024-02-15T05:37:05;100880.66;;;3.46;88.17
50590;BME280;36547;50.514;30.840;2024-02-15T05:38:09;100887.70;;;3.46;88.16
50590;BME280;36547;50.514;30.840;2024-02-15T05:39:13;100892.91;;;3.47;88.12
50590;BME280;36547;50.514;30.840;2024-02-15T05:40:20;100885.08;;;3.44;88.13
50590;BME280;36547;50.514;30.840;2024-02-15T05:41:25;100889.45;;;3.45;88.18